Accueil
METAR-TAF:

METAR-TAF

Aéroports :

Chester, Connecticut, États-Unis

latitude: 41-23-02N, longitude: 072-30-21W, altitude: 127 m

Observation

Le bulletin a été fait il y a 3 heures et 22 minutes, à 04:15 UTC
Vent 4 kt de sud
Température 15°C
Humidité 88%
Pression 1009 hPa
Visibilité: 16.1 km
Nuages fragmentés à une hauteur de 5500 ft
Ciel couvert à une hauteur de 9000 ft

METAR: KSNC 030415Z AUTO 19004KT 10SM BKN055 OVC090 15/13 A2980 RMK AO2

Heure: 03:37 (07:37 UTC)


TAF: absent

Observations et prévisions météorologiques de plus de 4000 aéroports (messages METAR et TAF).

Les stations disponibles sont représentées par des disques jaunes et rouges sur la carte.

Passer la souris dessus pour voir le nom de la station.

Cliquer dessus pour voir les observations et prévisions météorologiques.

Pour changer de carte: cliquez sur les boutons verts avec une croix noire pour zoomer, sur le bouton vert avec un tiret pour effectuer un zoom arrière, ou sur les flèches vertes pour les cartes adjacentes.


METAR-TAF: